sensor_id;sensor_type;location;lat;lon;timestamp;temperature;humidity
66608;DHT22;53462;39.616;8.824;2023-03-03T00:02:37;6.20;99.90
66608;DHT22;53462;39.616;8.824;2023-03-03T00:05:04;6.00;99.90
66608;DHT22;53462;39.616;8.824;2023-03-03T00:07:30;5.90;99.90
66608;DHT22;53462;39.616;8.824;2023-03-03T00:09:56;6.00;99.90
66608;DHT22;53462;39.616;8.824;2023-03-03T00:12:28;6.10;99.90
66608;DHT22;53462;39.616;8.824;2023-03-03T00:14:55;6.10;99.90
66608;DHT22;53462;39.616;8.824;2023-03-03T00:17:28;6.10;99.90
66608;DHT22;53462;39.616;8.824;2023-03-03T00:19:55;6.00;99.90
66608;DHT22;53462;39.616;8.824;2023-03-03T00:22:50;6.00;99.90
66608;DHT22;53462;39.616;8.824;2023-03-03T00:25:32;5.90;99.90
66608;DHT22;53462;39.616;8.824;2023-03-03T00:28:23;6.00;99.90
66608;DHT22;53462;39.616;8.824;2023-03-03T00:30:54;5.90;99.90
66608;DHT22;53462;39.616;8.824;2023-03-03T00:33:27;5.80;99.90
66608;DHT22;53462;39.616;8.824;2023-03-03T00:35:55;5.90;99.90
66608;DHT22;53462;39.616;8.824;2023-03-03T00:38:21;5.90;99.90
66608;DHT22;53462;39.616;8.824;2023-03-03T00:40:48;6.00;99.90
66608;DHT22;53462;39.616;8.824;2023-03-03T00:43:25;6.00;99.90
66608;DHT22;53462;39.616;8.824;2023-03-03T00:45:56;5.90;99.90
66608;DHT22;53462;39.616;8.824;2023-03-03T00:48:26;5.90;99.90
66608;DHT22;53462;39.616;8.824;2023-03-03T00:50:54;5.80;99.90
66608;DHT22;53462;39.616;8.824;2023-03-03T00:53:22;5.50;99.90
66608;DHT22;53462;39.616;8.824;2023-03-03T00:55:50;5.60;99.90
66608;DHT22;53462;39.616;8.824;2023-03-03T00:58:17;5.80;99.90
66608;DHT22;53462;39.616;8.824;2023-03-03T01:00:52;5.90;99.90
66608;DHT22;53462;39.616;8.824;2023-03-03T01:03:23;6.00;99.90
66608;DHT22;53462;39.616;8.824;2023-03-03T01:05:51;6.10;99.90
66608;DHT22;53462;39.616;8.824;2023-03-03T01:08:17;6.10;99.90
66608;DHT22;53462;39.616;8.824;2023-03-03T01:10:49;5.60;99.90
66608;DHT22;53462;39.616;8.824;2023-03-03T01:13:16;5.00;99.90
66608;DHT22;53462;39.616;8.824;2023-03-03T01:15:43;4.90;99.90
66608;DHT22;53462;39.616;8.824;2023-03-03T01:18:11;5.10;99.90
66608;DHT22;53462;39.616;8.824;2023-03-03T01:20:38;5.30;99.90
66608;DHT22;53462;39.616;8.824;2023-03-03T01:23:04;5.60;99.90
66608;DHT22;53462;39.616;8.824;2023-03-03T01:25:30;5.50;99.90
66608;DHT22;53462;39.616;8.824;2023-03-03T01:27:58;5.20;99.90
66608;DHT22;53462;39.616;8.824;2023-03-03T01:30:24;5.00;99.90
66608;DHT22;53462;39.616;8.824;2023-03-03T01:32:50;4.90;99.90
66608;DHT22;53462;39.616;8.824;2023-03-03T01:35:16;4.80;99.90
66608;DHT22;53462;39.616;8.824;2023-03-03T01:37:42;4.50;99.90
66608;DHT22;53462;39.616;8.824;2023-03-03T01:40:17;4.30;99.90
66608;DHT22;53462;39.616;8.824;2023-03-03T01:42:43;4.40;99.90
66608;DHT22;53462;39.616;8.824;2023-03-03T01:45:24;4.60;99.90
66608;DHT22;53462;39.616;8.824;2023-03-03T01:53:03;4.60;99.90
66608;DHT22;53462;39.616;8.824;2023-03-03T01:55:35;4.70;99.90
66608;DHT22;53462;39.616;8.824;2023-03-03T02:00:37;5.00;99.90
66608;DHT22;53462;39.616;8.824;2023-03-03T02:03:04;5.20;99.90
66608;DHT22;53462;39.616;8.824;2023-03-03T02:05:31;4.90;99.90
66608;DHT22;53462;39.616;8.824;2023-03-03T02:07:57;4.90;99.90
66608;DHT22;53462;39.616;8.824;2023-03-03T02:10:23;4.70;99.90
66608;DHT22;53462;39.616;8.824;2023-03-03T02:12:52;5.10;99.90
66608;DHT22;53462;39.616;8.824;2023-03-03T02:15:27;5.30;99.90
66608;DHT22;53462;39.616;8.824;2023-03-03T02:17:59;5.20;99.90
66608;DHT22;53462;39.616;8.824;2023-03-03T02:20:45;5.30;99.90
66608;DHT22;53462;39.616;8.824;2023-03-03T02:23:37;5.50;99.90
66608;DHT22;53462;39.616;8.824;2023-03-03T02:26:25;5.50;99.90
66608;DHT22;53462;39.616;8.824;2023-03-03T02:28:57;5.60;99.90
66608;DHT22;53462;39.616;8.824;2023-03-03T02:31:26;5.60;99.90
66608;DHT22;53462;39.616;8.824;2023-03-03T02:33:53;5.50;99.90
66608;DHT22;53462;39.616;8.824;2023-03-03T02:36:22;5.50;99.90
66608;DHT22;53462;39.616;8.824;2023-03-03T02:39:10;5.50;99.90
66608;DHT22;53462;39.616;8.824;2023-03-03T02:44:18;5.20;99.90
66608;DHT22;53462;39.616;8.824;2023-03-03T02:46:46;5.30;99.90
66608;DHT22;53462;39.616;8.824;2023-03-03T02:49:15;5.40;99.90
66608;DHT22;53462;39.616;8.824;2023-03-03T02:51:41;5.40;99.90
66608;DHT22;53462;39.616;8.824;2023-03-03T02:54:09;5.30;99.90
66608;DHT22;53462;39.616;8.824;2023-03-03T02:56:35;5.40;99.90
66608;DHT22;53462;39.616;8.824;2023-03-03T02:59:02;5.50;99.90
66608;DHT22;53462;39.616;8.824;2023-03-03T03:01:31;5.50;99.90
66608;DHT22;53462;39.616;8.824;2023-03-03T03:06:34;5.60;99.90
66608;DHT22;53462;39.616;8.824;2023-03-03T03:09:00;5.50;99.90
66608;DHT22;53462;39.616;8.824;2023-03-03T03:11:27;5.50;99.90
66608;DHT22;53462;39.616;8.824;2023-03-03T03:13:52;5.60;99.90
66608;DHT22;53462;39.616;8.824;2023-03-03T03:16:19;5.60;99.90
66608;DHT22;53462;39.616;8.824;2023-03-03T03:18:45;5.50;99.90
66608;DHT22;53462;39.616;8.824;2023-03-03T03:21:12;5.50;99.90
66608;DHT22;53462;39.616;8.824;2023-03-03T03:23:40;5.60;99.90
66608;DHT22;53462;39.616;8.824;2023-03-03T03:26:07;5.60;99.90
66608;DHT22;53462;39.616;8.824;2023-03-03T03:28:34;5.60;99.90
66608;DHT22;53462;39.616;8.824;2023-03-03T03:31:01;5.60;99.90
66608;DHT22;53462;39.616;8.824;2023-03-03T03:33:27;5.50;99.90
66608;DHT22;53462;39.616;8.824;2023-03-03T03:35:54;5.50;99.90
66608;DHT22;53462;39.616;8.824;2023-03-03T03:38:22;5.50;99.90
66608;DHT22;53462;39.616;8.824;2023-03-03T03:40:48;5.50;99.90
66608;DHT22;53462;39.616;8.824;2023-03-03T03:43:14;5.40;99.90
66608;DHT22;53462;39.616;8.824;2023-03-03T03:45:44;5.30;99.90
66608;DHT22;53462;39.616;8.824;2023-03-03T03:48:11;5.30;99.90
66608;DHT22;53462;39.616;8.824;2023-03-03T03:50:38;5.50;99.90
66608;DHT22;53462;39.616;8.824;2023-03-03T03:53:05;5.70;99.90
66608;DHT22;53462;39.616;8.824;2023-03-03T03:55:32;5.70;99.90
66608;DHT22;53462;39.616;8.824;2023-03-03T03:57:58;5.70;99.90
66608;DHT22;53462;39.616;8.824;2023-03-03T04:00:25;5.60;99.90
66608;DHT22;53462;39.616;8.824;2023-03-03T04:02:55;5.50;99.90
66608;DHT22;53462;39.616;8.824;2023-03-03T04:05:22;5.60;99.90
66608;DHT22;53462;39.616;8.824;2023-03-03T04:07:48;5.70;99.90
66608;DHT22;53462;39.616;8.824;2023-03-03T04:10:16;5.70;99.90
66608;DHT22;53462;39.616;8.824;2023-03-03T04:12:43;5.50;99.90
66608;DHT22;53462;39.616;8.824;2023-03-03T04:15:13;5.20;99.90
66608;DHT22;53462;39.616;8.824;2023-03-03T04:17:39;5.30;99.90
66608;DHT22;53462;39.616;8.824;2023-03-03T04:20:07;5.30;99.90
66608;DHT22;53462;39.616;8.824;2023-03-03T04:22:33;5.20;99.90
66608;DHT22;53462;39.616;8.824;2023-03-03T04:25:01;5.10;99.90
66608;DHT22;53462;39.616;8.824;2023-03-03T04:27:32;5.10;99.90
66608;DHT22;53462;39.616;8.824;2023-03-03T04:29:59;5.00;99.90
66608;DHT22;53462;39.616;8.824;2023-03-03T04:32:25;5.00;99.90
66608;DHT22;53462;39.616;8.824;2023-03-03T04:34:52;4.80;99.90
66608;DHT22;53462;39.616;8.824;2023-03-03T04:37:18;4.80;99.90
66608;DHT22;53462;39.616;8.824;2023-03-03T04:39:45;4.80;99.90
66608;DHT22;53462;39.616;8.824;2023-03-03T04:42:11;4.90;99.90
66608;DHT22;53462;39.616;8.824;2023-03-03T04:44:38;5.00;99.90
66608;DHT22;53462;39.616;8.824;2023-03-03T04:47:04;5.00;99.90
66608;DHT22;53462;39.616;8.824;2023-03-03T04:49:30;4.90;99.90
66608;DHT22;53462;39.616;8.824;2023-03-03T04:51:57;4.90;99.90
66608;DHT22;53462;39.616;8.824;2023-03-03T04:54:23;4.90;99.90
66608;DHT22;53462;39.616;8.824;2023-03-03T04:56:49;4.80;99.90
66608;DHT22;53462;39.616;8.824;2023-03-03T04:59:16;4.80;99.90
66608;DHT22;53462;39.616;8.824;2023-03-03T05:01:42;4.90;99.90
66608;DHT22;53462;39.616;8.824;2023-03-03T05:04:08;5.10;99.90
66608;DHT22;53462;39.616;8.824;2023-03-03T05:06:34;5.10;99.90
66608;DHT22;53462;39.616;8.824;2023-03-03T05:09:00;5.10;99.90
66608;DHT22;53462;39.616;8.824;2023-03-03T05:11:26;5.10;99.90
66608;DHT22;53462;39.616;8.824;2023-03-03T05:13:52;5.10;99.90
66608;DHT22;53462;39.616;8.824;2023-03-03T05:16:18;5.20;99.90
66608;DHT22;53462;39.616;8.824;2023-03-03T05:18:44;5.10;99.90
66608;DHT22;53462;39.616;8.824;2023-03-03T05:21:11;5.10;99.90
66608;DHT22;53462;39.616;8.824;2023-03-03T05:23:37;5.00;99.90
66608;DHT22;53462;39.616;8.824;2023-03-03T05:26:03;5.00;99.90
66608;DHT22;53462;39.616;8.824;2023-03-03T05:28:29;5.00;99.90
66608;DHT22;53462;39.616;8.824;2023-03-03T05:30:55;5.10;99.90
66608;DHT22;53462;39.616;8.824;2023-03-03T05:33:21;5.00;99.90
66608;DHT22;53462;39.616;8.824;2023-03-03T05:35:51;5.10;99.90
66608;DHT22;53462;39.616;8.824;2023-03-03T05:38:17;5.10;99.90
66608;DHT22;53462;39.616;8.824;2023-03-03T05:40:43;5.10;99.90
66608;DHT22;53462;39.616;8.824;2023-03-03T05:43:09;5.20;99.90
66608;DHT22;53462;39.616;8.824;2023-03-03T05:45:35;5.20;99.90
66608;DHT22;53462;39.616;8.824;2023-03-03T05:48:01;5.30;99.90
66608;DHT22;53462;39.616;8.824;2023-03-03T05:50:27;5.30;99.90
66608;DHT22;53462;39.616;8.824;2023-03-03T05:52:53;5.40;99.90
66608;DHT22;53462;39.616;8.824;2023-03-03T05:55:19;5.50;99.90
66608;DHT22;53462;39.616;8.824;2023-03-03T05:57:45;5.50;99.90
66608;DHT22;53462;39.616;8.824;2023-03-03T06:00:12;5.50;99.90
66608;DHT22;53462;39.616;8.824;2023-03-03T06:02:39;5.40;99.90
66608;DHT22;53462;39.616;8.824;2023-03-03T06:05:06;5.50;99.90
66608;DHT22;53462;39.616;8.824;2023-03-03T06:07:32;5.50;99.90
66608;DHT22;53462;39.616;8.824;2023-03-03T06:09:58;5.60;99.90
66608;DHT22;53462;39.616;8.824;2023-03-03T06:12:24;5.60;99.90
66608;DHT22;53462;39.616;8.824;2023-03-03T06:14:50;5.60;99.90
66608;DHT22;53462;39.616;8.824;2023-03-03T06:17:16;5.70;99.90
66608;DHT22;53462;39.616;8.824;2023-03-03T06:19:42;5.80;99.90
66608;DHT22;53462;39.616;8.824;2023-03-03T06:22:08;5.90;99.90
66608;DHT22;53462;39.616;8.824;2023-03-03T06:24:34;6.00;99.90
66608;DHT22;53462;39.616;8.824;2023-03-03T06:27:00;6.10;99.90
66608;DHT22;53462;39.616;8.824;2023-03-03T06:29:27;6.10;99.90
66608;DHT22;53462;39.616;8.824;2023-03-03T06:31:53;6.20;99.90
66608;DHT22;53462;39.616;8.824;2023-03-03T06:34:19;6.30;99.90
66608;DHT22;53462;39.616;8.824;2023-03-03T06:36:45;6.40;99.90
66608;DHT22;53462;39.616;8.824;2023-03-03T06:39:11;6.50;99.90
66608;DHT22;53462;39.616;8.824;2023-03-03T06:41:37;6.70;99.90
66608;DHT22;53462;39.616;8.824;2023-03-03T06:44:03;7.20;99.90
66608;DHT22;53462;39.616;8.824;2023-03-03T06:46:29;7.50;99.90
66608;DHT22;53462;39.616;8.824;2023-03-03T06:48:55;7.50;99.90
66608;DHT22;53462;39.616;8.824;2023-03-03T06:51:22;7.60;99.90
66608;DHT22;53462;39.616;8.824;2023-03-03T06:53:54;7.90;99.90
66608;DHT22;53462;39.616;8.824;2023-03-03T06:56:24;8.40;99.90
66608;DHT22;53462;39.616;8.824;2023-03-03T06:58:55;9.40;97.10
66608;DHT22;53462;39.616;8.824;2023-03-03T07:01:22;10.00;95.10
66608;DHT22;53462;39.616;8.824;2023-03-03T07:03:48;10.60;89.80
66608;DHT22;53462;39.616;8.824;2023-03-03T07:06:24;10.90;90.10
66608;DHT22;53462;39.616;8.824;2023-03-03T07:08:53;11.50;85.60
66608;DHT22;53462;39.616;8.824;2023-03-03T07:11:23;12.50;86.50
66608;DHT22;53462;39.616;8.824;2023-03-03T07:13:50;13.80;80.40
66608;DHT22;53462;39.616;8.824;2023-03-03T07:16:19;14.10;73.40
66608;DHT22;53462;39.616;8.824;2023-03-03T07:18:53;14.00;67.40
66608;DHT22;53462;39.616;8.824;2023-03-03T07:21:35;13.40;73.90
66608;DHT22;53462;39.616;8.824;2023-03-03T07:24:25;14.60;65.60
66608;DHT22;53462;39.616;8.824;2023-03-03T07:27:39;15.10;63.80
66608;DHT22;53462;39.616;8.824;2023-03-03T07:29:40;14.10;62.90
66608;DHT22;53462;39.616;8.824;2023-03-03T07:34:46;14.10;64.60
66608;DHT22;53462;39.616;8.824;2023-03-03T07:37:26;15.10;62.50
66608;DHT22;53462;39.616;8.824;2023-03-03T07:39:53;15.00;60.30
66608;DHT22;53462;39.616;8.824;2023-03-03T07:45:37;14.80;62.90
66608;DHT22;53462;39.616;8.824;2023-03-03T07:50:39;16.10;55.40
66608;DHT22;53462;39.616;8.824;2023-03-03T07:53:14;16.00;56.70
66608;DHT22;53462;39.616;8.824;2023-03-03T07:55:40;15.30;57.60
66608;DHT22;53462;39.616;8.824;2023-03-03T08:03:46;17.60;52.60
66608;DHT22;53462;39.616;8.824;2023-03-03T08:06:41;16.20;56.00
66608;DHT22;53462;39.616;8.824;2023-03-03T08:11:50;18.40;51.80
66608;DHT22;53462;39.616;8.824;2023-03-03T08:14:24;18.80;50.90
66608;DHT22;53462;39.616;8.824;2023-03-03T08:16:50;19.00;49.20
66608;DHT22;53462;39.616;8.824;2023-03-03T08:19:17;18.00;49.40
66608;DHT22;53462;39.616;8.824;2023-03-03T08:21:43;18.30;46.70
66608;DHT22;53462;39.616;8.824;2023-03-03T08:24:09;18.30;46.10
66608;DHT22;53462;39.616;8.824;2023-03-03T08:26:36;18.40;45.60
66608;DHT22;53462;39.616;8.824;2023-03-03T08:29:01;18.00;46.20
66608;DHT22;53462;39.616;8.824;2023-03-03T08:31:28;18.40;46.50
66608;DHT22;53462;39.616;8.824;2023-03-03T08:33:54;18.40;45.40
66608;DHT22;53462;39.616;8.824;2023-03-03T08:36:20;18.70;45.80
66608;DHT22;53462;39.616;8.824;2023-03-03T08:38:46;18.80;44.70
66608;DHT22;53462;39.616;8.824;2023-03-03T08:41:18;18.90;44.50
66608;DHT22;53462;39.616;8.824;2023-03-03T08:43:44;19.40;44.10
66608;DHT22;53462;39.616;8.824;2023-03-03T08:46:10;18.80;44.50
66608;DHT22;53462;39.616;8.824;2023-03-03T08:48:36;19.40;44.90
66608;DHT22;53462;39.616;8.824;2023-03-03T08:51:03;19.90;43.70
66608;DHT22;53462;39.616;8.824;2023-03-03T08:53:29;19.60;42.90
66608;DHT22;53462;39.616;8.824;2023-03-03T08:55:55;19.50;43.40
66608;DHT22;53462;39.616;8.824;2023-03-03T08:58:21;19.50;44.00
66608;DHT22;53462;39.616;8.824;2023-03-03T09:00:47;19.70;43.70
66608;DHT22;53462;39.616;8.824;2023-03-03T09:03:13;19.70;42.90
66608;DHT22;53462;39.616;8.824;2023-03-03T09:05:40;19.60;42.80
66608;DHT22;53462;39.616;8.824;2023-03-03T09:08:06;20.70;42.60
66608;DHT22;53462;39.616;8.824;2023-03-03T09:10:33;19.20;43.50
66608;DHT22;53462;39.616;8.824;2023-03-03T09:13:06;19.90;42.80
66608;DHT22;53462;39.616;8.824;2023-03-03T09:15:35;20.60;41.90
66608;DHT22;53462;39.616;8.824;2023-03-03T09:18:15;20.10;42.90
66608;DHT22;53462;39.616;8.824;2023-03-03T09:20:44;20.90;40.40
66608;DHT22;53462;39.616;8.824;2023-03-03T09:23:30;20.90;39.90
66608;DHT22;53462;39.616;8.824;2023-03-03T09:26:24;19.70;41.50
66608;DHT22;53462;39.616;8.824;2023-03-03T09:29:05;20.10;41.50
66608;DHT22;53462;39.616;8.824;2023-03-03T09:31:39;21.10;40.30
66608;DHT22;53462;39.616;8.824;2023-03-03T09:34:39;21.50;38.20
66608;DHT22;53462;39.616;8.824;2023-03-03T09:37:21;21.10;39.00
66608;DHT22;53462;39.616;8.824;2023-03-03T09:39:52;20.00;40.10
66608;DHT22;53462;39.616;8.824;2023-03-03T09:53:46;15.60;48.70
66608;DHT22;53462;39.616;8.824;2023-03-03T09:56:37;16.40;50.60
66608;DHT22;53462;39.616;8.824;2023-03-03T09:59:23;16.70;48.70
66608;DHT22;53462;39.616;8.824;2023-03-03T10:05:04;16.60;47.70
66608;DHT22;53462;39.616;8.824;2023-03-03T10:16:11;16.40;48.00
66608;DHT22;53462;39.616;8.824;2023-03-03T10:19:00;16.50;48.30
66608;DHT22;53462;39.616;8.824;2023-03-03T10:21:41;16.60;46.80
66608;DHT22;53462;39.616;8.824;2023-03-03T10:24:30;16.40;44.70
66608;DHT22;53462;39.616;8.824;2023-03-03T10:30:07;17.60;44.50
66608;DHT22;53462;39.616;8.824;2023-03-03T10:40:57;15.80;48.80
66608;DHT22;53462;39.616;8.824;2023-03-03T10:43:33;15.10;50.80
66608;DHT22;53462;39.616;8.824;2023-03-03T10:48:45;16.00;49.50
66608;DHT22;53462;39.616;8.824;2023-03-03T10:57:47;14.40;52.70
66608;DHT22;53462;39.616;8.824;2023-03-03T11:00:23;14.40;53.90
66608;DHT22;53462;39.616;8.824;2023-03-03T11:03:22;15.30;51.40
66608;DHT22;53462;39.616;8.824;2023-03-03T11:14:21;14.10;54.90
66608;DHT22;53462;39.616;8.824;2023-03-03T11:30:39;15.90;47.30
66608;DHT22;53462;39.616;8.824;2023-03-03T11:33:14;16.40;47.90
66608;DHT22;53462;39.616;8.824;2023-03-03T11:40:53;16.20;47.80
66608;DHT22;53462;39.616;8.824;2023-03-03T11:45:57;16.60;44.40
66608;DHT22;53462;39.616;8.824;2023-03-03T11:56:24;16.40;44.50
66608;DHT22;53462;39.616;8.824;2023-03-03T12:04:49;16.30;44.60
66608;DHT22;53462;39.616;8.824;2023-03-03T12:07:39;16.40;44.20
66608;DHT22;53462;39.616;8.824;2023-03-03T12:21:43;15.40;44.10
66608;DHT22;53462;39.616;8.824;2023-03-03T12:40:33;15.00;50.60
66608;DHT22;53462;39.616;8.824;2023-03-03T12:48:23;16.70;45.30
66608;DHT22;53462;39.616;8.824;2023-03-03T12:51:09;16.40;45.70
66608;DHT22;53462;39.616;8.824;2023-03-03T12:59:08;16.00;43.70
66608;DHT22;53462;39.616;8.824;2023-03-03T13:07:40;16.70;41.30
66608;DHT22;53462;39.616;8.824;2023-03-03T13:12:53;17.40;39.70
66608;DHT22;53462;39.616;8.824;2023-03-03T13:15:26;17.50;39.90
66608;DHT22;53462;39.616;8.824;2023-03-03T13:18:23;17.10;36.90
66608;DHT22;53462;39.616;8.824;2023-03-03T13:26:53;17.10;35.00
66608;DHT22;53462;39.616;8.824;2023-03-03T13:29:47;17.10;35.20
66608;DHT22;53462;39.616;8.824;2023-03-03T13:32:24;17.80;37.70
66608;DHT22;53462;39.616;8.824;2023-03-03T13:37:44;17.60;38.10
66608;DHT22;53462;39.616;8.824;2023-03-03T13:42:52;17.20;40.20
66608;DHT22;53462;39.616;8.824;2023-03-03T13:45:24;17.20;40.00
66608;DHT22;53462;39.616;8.824;2023-03-03T13:50:56;16.90;38.90
66608;DHT22;53462;39.616;8.824;2023-03-03T13:58:52;16.20;38.30
66608;DHT22;53462;39.616;8.824;2023-03-03T14:10:25;16.10;39.60
66608;DHT22;53462;39.616;8.824;2023-03-03T14:13:07;16.30;40.50
66608;DHT22;53462;39.616;8.824;2023-03-03T14:16:03;16.70;41.70
66608;DHT22;53462;39.616;8.824;2023-03-03T14:18:39;17.00;38.00
66608;DHT22;53462;39.616;8.824;2023-03-03T14:21:18;17.20;39.30
66608;DHT22;53462;39.616;8.824;2023-03-03T14:24:36;17.20;40.30
66608;DHT22;53462;39.616;8.824;2023-03-03T14:26:55;18.10;42.80
66608;DHT22;53462;39.616;8.824;2023-03-03T14:31:51;18.20;41.40
66608;DHT22;53462;39.616;8.824;2023-03-03T14:34:33;18.30;42.50
66608;DHT22;53462;39.616;8.824;2023-03-03T14:40:19;18.20;42.00
66608;DHT22;53462;39.616;8.824;2023-03-03T14:45:49;18.70;39.80
66608;DHT22;53462;39.616;8.824;2023-03-03T14:48:20;18.40;37.20
66608;DHT22;53462;39.616;8.824;2023-03-03T14:55:43;17.20;40.40
66608;DHT22;53462;39.616;8.824;2023-03-03T14:58:44;17.60;42.50
66608;DHT22;53462;39.616;8.824;2023-03-03T15:06:51;17.20;46.30
66608;DHT22;53462;39.616;8.824;2023-03-03T15:09:49;16.80;50.10
66608;DHT22;53462;39.616;8.824;2023-03-03T15:12:35;16.80;49.80
66608;DHT22;53462;39.616;8.824;2023-03-03T15:17:37;16.10;54.40
66608;DHT22;53462;39.616;8.824;2023-03-03T15:25:46;15.90;57.80
66608;DHT22;53462;39.616;8.824;2023-03-03T15:31:48;15.70;60.20
66608;DHT22;53462;39.616;8.824;2023-03-03T15:36:39;15.50;55.80
66608;DHT22;53462;39.616;8.824;2023-03-03T15:42:14;14.20;56.50
66608;DHT22;53462;39.616;8.824;2023-03-03T15:45:47;14.20;57.00
66608;DHT22;53462;39.616;8.824;2023-03-03T16:04:35;12.60;76.40
66608;DHT22;53462;39.616;8.824;2023-03-03T16:10:06;12.50;81.70
66608;DHT22;53462;39.616;8.824;2023-03-03T16:15:40;12.30;84.60
66608;DHT22;53462;39.616;8.824;2023-03-03T16:18:16;12.10;88.40
66608;DHT22;53462;39.616;8.824;2023-03-03T16:24:05;12.00;89.80
66608;DHT22;53462;39.616;8.824;2023-03-03T16:26:51;11.90;90.70
66608;DHT22;53462;39.616;8.824;2023-03-03T16:35:24;11.70;96.30
66608;DHT22;53462;39.616;8.824;2023-03-03T16:40:23;11.30;99.90
66608;DHT22;53462;39.616;8.824;2023-03-03T16:45:57;11.20;99.90
66608;DHT22;53462;39.616;8.824;2023-03-03T16:48:51;11.20;99.90
66608;DHT22;53462;39.616;8.824;2023-03-03T16:59:52;11.30;94.50
66608;DHT22;53462;39.616;8.824;2023-03-03T17:05:06;10.80;99.90
66608;DHT22;53462;39.616;8.824;2023-03-03T17:10:55;10.60;99.90
66608;DHT22;53462;39.616;8.824;2023-03-03T17:13:31;10.70;99.90
66608;DHT22;53462;39.616;8.824;2023-03-03T17:16:07;10.80;99.90
66608;DHT22;53462;39.616;8.824;2023-03-03T17:21:27;10.90;99.90
66608;DHT22;53462;39.616;8.824;2023-03-03T17:24:33;10.80;99.90
66608;DHT22;53462;39.616;8.824;2023-03-03T17:46:46;10.40;99.90
66608;DHT22;53462;39.616;8.824;2023-03-03T17:49:35;10.50;99.90
66608;DHT22;53462;39.616;8.824;2023-03-03T17:55:19;10.70;99.90
66608;DHT22;53462;39.616;8.824;2023-03-03T18:00:55;10.50;99.90
66608;DHT22;53462;39.616;8.824;2023-03-03T18:06:37;10.50;99.90
66608;DHT22;53462;39.616;8.824;2023-03-03T18:12:03;10.40;99.90
66608;DHT22;53462;39.616;8.824;2023-03-03T18:22:47;10.00;99.90
66608;DHT22;53462;39.616;8.824;2023-03-03T18:30:57;10.00;99.90
66608;DHT22;53462;39.616;8.824;2023-03-03T18:33:43;9.90;99.90
66608;DHT22;53462;39.616;8.824;2023-03-03T18:38:51;9.90;99.90
66608;DHT22;53462;39.616;8.824;2023-03-03T18:41:29;10.00;99.90
66608;DHT22;53462;39.616;8.824;2023-03-03T18:48:59;10.10;99.90
66608;DHT22;53462;39.616;8.824;2023-03-03T18:56:43;9.90;99.90
66608;DHT22;53462;39.616;8.824;2023-03-03T18:59:09;9.70;99.90
66608;DHT22;53462;39.616;8.824;2023-03-03T19:01:42;9.80;99.90
66608;DHT22;53462;39.616;8.824;2023-03-03T19:04:16;9.70;99.90
66608;DHT22;53462;39.616;8.824;2023-03-03T19:10:03;9.50;99.90
66608;DHT22;53462;39.616;8.824;2023-03-03T19:12:10;9.70;99.90
66608;DHT22;53462;39.616;8.824;2023-03-03T19:14:39;9.80;99.90
66608;DHT22;53462;39.616;8.824;2023-03-03T19:20:01;9.80;99.90
66608;DHT22;53462;39.616;8.824;2023-03-03T19:22:46;9.90;99.90
66608;DHT22;53462;39.616;8.824;2023-03-03T19:25:21;9.90;99.90
66608;DHT22;53462;39.616;8.824;2023-03-03T19:31:14;10.00;99.90
66608;DHT22;53462;39.616;8.824;2023-03-03T19:33:56;9.80;99.90
66608;DHT22;53462;39.616;8.824;2023-03-03T19:40:05;9.50;99.90
66608;DHT22;53462;39.616;8.824;2023-03-03T19:50:35;9.00;99.90
66608;DHT22;53462;39.616;8.824;2023-03-03T20:03:53;9.50;99.90
66608;DHT22;53462;39.616;8.824;2023-03-03T20:06:33;9.60;99.90
66608;DHT22;53462;39.616;8.824;2023-03-03T20:39:59;9.00;99.90
66608;DHT22;53462;39.616;8.824;2023-03-03T20:45:43;8.90;99.90
66608;DHT22;53462;39.616;8.824;2023-03-03T20:53:43;8.90;99.90
66608;DHT22;53462;39.616;8.824;2023-03-03T20:59:19;8.80;99.90
66608;DHT22;53462;39.616;8.824;2023-03-03T21:02:08;8.80;99.90
66608;DHT22;53462;39.616;8.824;2023-03-03T21:04:40;8.80;99.90
66608;DHT22;53462;39.616;8.824;2023-03-03T21:07:05;8.70;99.90
66608;DHT22;53462;39.616;8.824;2023-03-03T21:09:35;8.70;99.90
66608;DHT22;53462;39.616;8.824;2023-03-03T21:12:24;8.60;99.90
66608;DHT22;53462;39.616;8.824;2023-03-03T21:15:02;8.60;99.90
66608;DHT22;53462;39.616;8.824;2023-03-03T21:17:29;8.50;99.90
66608;DHT22;53462;39.616;8.824;2023-03-03T21:22:45;8.50;99.90
66608;DHT22;53462;39.616;8.824;2023-03-03T21:28:16;8.40;99.90
66608;DHT22;53462;39.616;8.824;2023-03-03T21:36:12;8.40;99.90
66608;DHT22;53462;39.616;8.824;2023-03-03T21:38:39;8.10;99.90
66608;DHT22;53462;39.616;8.824;2023-03-03T21:41:06;8.10;99.90
66608;DHT22;53462;39.616;8.824;2023-03-03T21:43:37;8.10;99.90
66608;DHT22;53462;39.616;8.824;2023-03-03T21:46:04;8.10;99.90
66608;DHT22;53462;39.616;8.824;2023-03-03T21:48:30;8.10;99.90
66608;DHT22;53462;39.616;8.824;2023-03-03T21:50:56;8.20;99.90
66608;DHT22;53462;39.616;8.824;2023-03-03T21:53:22;8.20;99.90
66608;DHT22;53462;39.616;8.824;2023-03-03T21:55:54;8.20;99.90
66608;DHT22;53462;39.616;8.824;2023-03-03T21:58:20;8.20;99.90
66608;DHT22;53462;39.616;8.824;2023-03-03T22:00:46;8.20;99.90
66608;DHT22;53462;39.616;8.824;2023-03-03T22:03:12;8.20;99.90
66608;DHT22;53462;39.616;8.824;2023-03-03T22:05:40;8.10;99.90
66608;DHT22;53462;39.616;8.824;2023-03-03T22:08:06;8.00;99.90
66608;DHT22;53462;39.616;8.824;2023-03-03T22:10:32;8.10;99.90
66608;DHT22;53462;39.616;8.824;2023-03-03T22:12:58;8.00;99.90
66608;DHT22;53462;39.616;8.824;2023-03-03T22:15:24;8.00;99.90
66608;DHT22;53462;39.616;8.824;2023-03-03T22:17:51;7.90;99.90
66608;DHT22;53462;39.616;8.824;2023-03-03T22:20:16;7.90;99.90
66608;DHT22;53462;39.616;8.824;2023-03-03T22:22:42;7.90;99.90
66608;DHT22;53462;39.616;8.824;2023-03-03T22:25:08;7.80;99.90
66608;DHT22;53462;39.616;8.824;2023-03-03T22:27:34;7.60;99.90
66608;DHT22;53462;39.616;8.824;2023-03-03T22:30:01;7.70;99.90
66608;DHT22;53462;39.616;8.824;2023-03-03T22:32:27;7.80;99.90
66608;DHT22;53462;39.616;8.824;2023-03-03T22:34:54;7.90;99.90
66608;DHT22;53462;39.616;8.824;2023-03-03T22:37:20;8.00;99.90
66608;DHT22;53462;39.616;8.824;2023-03-03T22:39:46;7.90;99.90
66608;DHT22;53462;39.616;8.824;2023-03-03T22:42:12;7.90;99.90
66608;DHT22;53462;39.616;8.824;2023-03-03T22:44:38;7.80;99.90
66608;DHT22;53462;39.616;8.824;2023-03-03T22:47:04;7.60;99.90
66608;DHT22;53462;39.616;8.824;2023-03-03T22:49:30;7.50;99.90
66608;DHT22;53462;39.616;8.824;2023-03-03T22:51:56;7.40;99.90
66608;DHT22;53462;39.616;8.824;2023-03-03T22:54:24;7.40;99.90
66608;DHT22;53462;39.616;8.824;2023-03-03T22:56:50;7.30;99.90
66608;DHT22;53462;39.616;8.824;2023-03-03T22:59:16;7.10;99.90
66608;DHT22;53462;39.616;8.824;2023-03-03T23:01:42;7.00;99.90
66608;DHT22;53462;39.616;8.824;2023-03-03T23:04:08;7.00;99.90
66608;DHT22;53462;39.616;8.824;2023-03-03T23:06:34;7.10;99.90
66608;DHT22;53462;39.616;8.824;2023-03-03T23:09:00;6.90;99.90
66608;DHT22;53462;39.616;8.824;2023-03-03T23:11:25;6.80;99.90
66608;DHT22;53462;39.616;8.824;2023-03-03T23:13:52;6.90;99.90